createdAt,value
2022-12-15T19:27:50.477Z,17.15
2022-12-15T19:29:01.467Z,24.20
2022-12-15T19:30:06.743Z,24.23
2022-12-15T19:31:09.644Z,24.33
2022-12-15T19:32:12.011Z,25.40
2022-12-15T19:33:16.564Z,27.27
2022-12-15T19:34:19.424Z,24.17
2022-12-15T19:35:21.672Z,26.17
2022-12-15T19:36:25.397Z,26.02
2022-12-15T19:37:30.114Z,25.77
2022-12-15T19:38:34.136Z,28.23
2022-12-15T19:39:38.209Z,25.95
2022-12-15T19:40:41.339Z,27.58
2022-12-15T19:41:44.325Z,28.92
2022-12-15T19:42:47.579Z,26.42
2022-12-15T19:43:50.966Z,29.60
2022-12-15T19:44:55.256Z,26.98
2022-12-15T19:45:58.207Z,29.42
2022-12-15T19:47:00.257Z,29.35
2022-12-15T19:48:03.412Z,24.63
2022-12-15T19:49:06.361Z,29.65
2022-12-15T19:50:15.870Z,28.70
2022-12-15T19:51:21.653Z,26.70
2022-12-15T19:52:23.643Z,26.63
2022-12-15T19:53:28.832Z,27.73
2022-12-15T19:54:30.824Z,27.65
2022-12-15T19:55:36.044Z,26.00
2022-12-15T19:56:39.021Z,23.55
2022-12-15T19:57:41.431Z,27.67
2022-12-15T19:58:45.131Z,25.63
2022-12-15T19:59:47.143Z,27.20
2022-12-15T20:00:51.888Z,29.23
2022-12-15T20:01:55.042Z,25.33
2022-12-15T20:02:57.503Z,27.02
2022-12-15T20:04:00.733Z,23.67
2022-12-15T20:05:03.062Z,24.15
2022-12-15T20:06:15.302Z,26.58
2022-12-15T20:07:19.742Z,25.92
2022-12-15T20:08:25.692Z,26.90
2022-12-15T20:09:29.212Z,25.70
2022-12-15T20:10:32.705Z,25.50
2022-12-15T20:11:35.771Z,27.83
2022-12-15T20:12:37.649Z,27.40
2022-12-15T20:13:40.695Z,26.40
2022-12-15T20:14:44.548Z,27.33
2022-12-15T20:15:47.486Z,26.67
2022-12-15T20:16:51.787Z,26.27
2022-12-15T20:17:56.731Z,25.05
2022-12-15T20:19:00.478Z,25.80
2022-12-15T20:20:02.354Z,25.08
2022-12-15T20:21:05.268Z,26.05
2022-12-15T20:22:13.932Z,22.80
2022-12-15T20:23:19.696Z,24.98
2022-12-15T20:24:21.718Z,26.67
2022-12-15T20:25:28.005Z,24.77
2022-12-15T20:26:31.633Z,23.55
2022-12-15T20:27:33.894Z,28.15
2022-12-15T20:28:36.801Z,22.98
2022-12-15T20:29:38.865Z,24.05
2022-12-15T20:30:42.032Z,25.20
2022-12-15T20:31:45.149Z,23.30
2022-12-15T20:32:49.041Z,25.65
2022-12-15T20:33:53.366Z,23.88
2022-12-15T20:34:55.272Z,23.27
2022-12-15T20:35:58.214Z,23.75
2022-12-15T20:37:00.101Z,22.83
2022-12-15T20:38:15.873Z,24.15
2022-12-15T20:39:22.299Z,21.45
2022-12-15T20:40:27.608Z,21.33
2022-12-15T20:41:32.085Z,21.52
2022-12-15T20:42:33.964Z,23.23
2022-12-15T20:43:37.137Z,22.10
2022-12-15T20:44:39.156Z,22.80
2022-12-15T20:45:42.509Z,20.02
2022-12-15T20:46:45.963Z,18.48
2022-12-15T20:47:52.388Z,21.80
2022-12-15T20:48:56.663Z,20.67
2022-12-15T20:49:58.579Z,23.25
2022-12-15T20:51:04.483Z,22.13
2022-12-15T20:52:20.253Z,22.50
2022-12-15T20:53:25.594Z,22.42
2022-12-15T20:54:28.465Z,23.77
2022-12-15T20:55:31.669Z,21.58
2022-12-15T20:56:34.649Z,20.92
2022-12-15T20:57:37.529Z,20.85
2022-12-15T20:58:40.524Z,20.10
2022-12-15T20:59:42.448Z,20.90
2022-12-15T21:00:46.253Z,20.20
2022-12-15T21:01:49.343Z,20.83
2022-12-15T21:02:55.556Z,21.63
2022-12-15T21:03:59.904Z,20.77
2022-12-15T21:05:03.508Z,21.25
2022-12-15T21:06:06.782Z,18.85
2022-12-15T21:07:11.982Z,20.73
2022-12-15T21:08:18.048Z,20.23
2022-12-15T21:09:21.474Z,18.65
2022-12-15T21:10:23.417Z,20.23
2022-12-15T21:11:29.350Z,20.75
2022-12-15T21:12:31.244Z,19.15
2022-12-15T21:13:35.835Z,17.20
2022-12-15T21:14:37.932Z,18.15
2022-12-15T21:15:40.837Z,19.10
2022-12-15T21:16:44.364Z,18.48
2022-12-15T21:17:58.005Z,19.08
2022-12-15T21:19:22.112Z,16.42
2022-12-15T21:20:24.629Z,15.88
2022-12-15T21:21:29.754Z,18.58
2022-12-15T21:22:31.704Z,17.90
2022-12-15T21:23:39.730Z,17.38
2022-12-15T21:24:45.002Z,17.50
2022-12-15T21:25:48.435Z,16.55
2022-12-15T21:26:52.494Z,17.65
2022-12-15T21:27:54.372Z,15.50
2022-12-15T21:29:00.768Z,15.57
2022-12-15T21:30:02.964Z,14.10
2022-12-15T21:31:06.303Z,15.68
2022-12-15T21:32:08.214Z,15.30
2022-12-15T21:33:11.474Z,16.55
2022-12-15T21:34:15.361Z,15.52
2022-12-15T21:35:20.351Z,16.02
2022-12-15T21:36:22.404Z,16.92
2022-12-15T21:37:28.964Z,16.10
2022-12-15T21:38:34.737Z,15.90
2022-12-15T21:39:37.512Z,16.25
2022-12-15T21:40:40.654Z,15.45
2022-12-15T21:41:44.318Z,12.70
2022-12-15T21:42:47.477Z,15.25
2022-12-15T21:43:50.982Z,13.77
2022-12-15T21:44:53.441Z,14.00
2022-12-15T21:45:58.083Z,14.25
2022-12-15T21:47:00.049Z,15.07
2022-12-15T21:48:29.196Z,14.27
2022-12-15T21:49:34.174Z,11.18
2022-12-15T21:50:37.534Z,14.07
2022-12-15T21:51:41.456Z,14.55
2022-12-15T21:52:44.458Z,13.55
2022-12-15T21:53:47.568Z,15.15
2022-12-15T21:54:50.446Z,13.93
2022-12-15T21:55:53.813Z,12.02
2022-12-15T21:56:56.782Z,13.23
2022-12-15T21:57:58.697Z,14.55
2022-12-15T21:59:01.544Z,13.05
2022-12-15T22:00:10.538Z,13.40
2022-12-15T22:01:14.943Z,13.40
2022-12-15T22:02:28.298Z,12.35
2022-12-15T22:03:30.299Z,13.50
2022-12-15T22:04:36.113Z,12.40
2022-12-15T22:05:38.042Z,11.20
2022-12-15T22:06:43.668Z,12.77
2022-12-15T22:07:50.520Z,13.18
2022-12-15T22:08:55.121Z,11.93
2022-12-15T22:09:58.399Z,12.20
2022-12-15T22:11:00.258Z,14.18
2022-12-15T22:12:03.409Z,14.77
2022-12-15T22:13:05.620Z,13.18
2022-12-15T22:14:20.447Z,13.63
2022-12-15T22:15:22.696Z,13.13
2022-12-15T22:16:26.070Z,11.68
2022-12-15T22:17:29.052Z,13.20
2022-12-15T22:18:31.296Z,11.40
2022-12-15T22:19:35.892Z,11.20
2022-12-15T22:20:38.075Z,12.20
2022-12-15T22:21:42.616Z,11.95
2022-12-15T22:22:44.906Z,10.15
2022-12-15T22:23:48.622Z,10.75
2022-12-15T22:24:50.504Z,10.20
2022-12-15T22:25:56.777Z,12.93
2022-12-15T22:26:59.721Z,11.18
2022-12-15T22:28:01.616Z,12.95
2022-12-15T22:29:10.965Z,11.00
2022-12-15T22:30:17.899Z,10.25
2022-12-15T22:31:20.951Z,11.73
2022-12-15T22:32:23.897Z,11.63
2022-12-15T22:33:27.475Z,11.30
2022-12-15T22:35:25.795Z,9.25
2022-12-15T22:36:30.553Z,9.77
2022-12-15T22:37:32.455Z,11.18
2022-12-15T22:38:35.791Z,10.32
2022-12-15T22:39:38.010Z,10.75
2022-12-15T22:40:41.142Z,12.35
2022-12-15T22:41:46.786Z,10.80
2022-12-15T22:42:51.746Z,11.07
2022-12-15T22:43:57.439Z,11.07
2022-12-15T22:44:59.420Z,10.90
2022-12-15T22:46:02.941Z,11.50
2022-12-15T22:47:07.855Z,10.63
2022-12-15T22:48:14.203Z,12.00
2022-12-15T22:49:19.719Z,12.48
2022-12-15T22:50:24.862Z,11.98
2022-12-15T22:51:27.748Z,9.30
2022-12-15T22:52:31.078Z,10.23
2022-12-15T22:53:36.115Z,10.27
2022-12-15T22:54:41.394Z,10.73
2022-12-15T22:55:49.233Z,10.82
2022-12-15T22:56:56.264Z,10.50
2022-12-15T22:58:01.474Z,10.70
2022-12-15T22:59:10.420Z,11.60
2022-12-15T23:00:14.882Z,10.77
2022-12-15T23:01:16.860Z,12.25
2022-12-15T23:02:19.861Z,10.52
2022-12-15T23:03:22.264Z,11.75
2022-12-15T23:04:25.748Z,11.18
2022-12-15T23:05:27.882Z,10.05
2022-12-15T23:06:30.816Z,10.35
2022-12-15T23:07:35.567Z,10.25
2022-12-15T23:08:38.473Z,9.43
2022-12-15T23:09:40.608Z,10.75
2022-12-15T23:11:00.919Z,11.18
2022-12-15T23:12:03.809Z,11.23
2022-12-15T23:13:05.905Z,10.27
2022-12-15T23:14:10.816Z,9.68
2022-12-15T23:15:31.398Z,10.27
2022-12-15T23:16:34.073Z,9.68
2022-12-15T23:17:36.042Z,9.25
2022-12-15T23:18:39.075Z,8.63
2022-12-15T23:19:44.579Z,9.45
2022-12-15T23:20:46.503Z,11.23
2022-12-15T23:21:49.579Z,8.95
2022-12-15T23:22:53.621Z,10.57
2022-12-15T23:23:58.736Z,9.57
2022-12-15T23:25:00.642Z,9.55
2022-12-15T23:26:04.803Z,11.38
2022-12-15T23:27:11.197Z,10.73
2022-12-15T23:28:14.303Z,9.50
2022-12-15T23:29:17.575Z,11.05
2022-12-15T23:30:19.542Z,10.02
2022-12-15T23:31:22.694Z,9.43
2022-12-15T23:32:24.719Z,9.38
2022-12-15T23:33:28.745Z,12.20
2022-12-15T23:34:30.608Z,9.88
2022-12-15T23:35:33.517Z,9.80
2022-12-15T23:36:36.457Z,9.77
2022-12-15T23:37:38.412Z,10.05
2022-12-15T23:38:42.874Z,10.35
2022-12-15T23:39:44.894Z,9.63
2022-12-15T23:40:52.789Z,9.25
2022-12-15T23:41:54.968Z,11.52
2022-12-15T23:42:57.844Z,10.60
2022-12-15T23:44:00.701Z,10.88
2022-12-15T23:45:02.668Z,8.82
2022-12-15T23:46:07.896Z,8.93
2022-12-15T23:47:10.456Z,9.80
2022-12-15T23:48:15.078Z,11.80
2022-12-15T23:49:17.874Z,11.02
2022-12-15T23:50:19.817Z,9.50
2022-12-15T23:51:22.735Z,10.07
2022-12-15T23:52:28.225Z,9.32
2022-12-15T23:53:31.868Z,9.88
2022-12-15T23:54:36.430Z,10.85
2022-12-15T23:55:38.305Z,9.95
2022-12-15T23:56:41.744Z,10.65
2022-12-15T23:57:43.747Z,10.18
2022-12-15T23:58:48.996Z,8.88
2022-12-15T23:59:50.992Z,9.70
